sensor_id;sensor_type;location;lat;lon;timestamp;temperature;humidity
6307;DHT22;3186;54.062;9.962;2024-02-26T00:02:25;3.80;99.90
6307;DHT22;3186;54.062;9.962;2024-02-26T00:04:50;3.80;99.90
6307;DHT22;3186;54.062;9.962;2024-02-26T00:07:16;3.80;99.90
6307;DHT22;3186;54.062;9.962;2024-02-26T00:09:42;3.80;99.90
6307;DHT22;3186;54.062;9.962;2024-02-26T00:12:07;3.80;99.90
6307;DHT22;3186;54.062;9.962;2024-02-26T00:14:33;3.80;99.90
6307;DHT22;3186;54.062;9.962;2024-02-26T00:17:00;3.80;99.90
6307;DHT22;3186;54.062;9.962;2024-02-26T00:19:25;3.70;99.90
6307;DHT22;3186;54.062;9.962;2024-02-26T00:21:51;3.70;99.90
6307;DHT22;3186;54.062;9.962;2024-02-26T00:24:19;3.70;99.90
6307;DHT22;3186;54.062;9.962;2024-02-26T00:26:44;3.70;99.90
6307;DHT22;3186;54.062;9.962;2024-02-26T00:29:10;3.60;99.90
6307;DHT22;3186;54.062;9.962;2024-02-26T00:31:37;3.60;99.90
6307;DHT22;3186;54.062;9.962;2024-02-26T00:34:03;3.50;99.90
6307;DHT22;3186;54.062;9.962;2024-02-26T00:36:29;3.50;99.90
6307;DHT22;3186;54.062;9.962;2024-02-26T00:38:54;3.50;99.90
6307;DHT22;3186;54.062;9.962;2024-02-26T00:41:20;3.40;99.90
6307;DHT22;3186;54.062;9.962;2024-02-26T00:43:47;3.50;99.90
6307;DHT22;3186;54.062;9.962;2024-02-26T00:46:12;3.50;99.90
6307;DHT22;3186;54.062;9.962;2024-02-26T00:48:38;3.50;99.90
6307;DHT22;3186;54.062;9.962;2024-02-26T00:51:05;3.40;99.90
6307;DHT22;3186;54.062;9.962;2024-02-26T00:53:31;3.40;99.90
6307;DHT22;3186;54.062;9.962;2024-02-26T00:55:57;3.40;99.90
6307;DHT22;3186;54.062;9.962;2024-02-26T00:58:25;3.40;99.90
6307;DHT22;3186;54.062;9.962;2024-02-26T01:00:50;3.40;99.90
6307;DHT22;3186;54.062;9.962;2024-02-26T01:03:17;3.30;99.90
6307;DHT22;3186;54.062;9.962;2024-02-26T01:05:42;3.50;99.90
6307;DHT22;3186;54.062;9.962;2024-02-26T01:08:08;3.30;99.90
6307;DHT22;3186;54.062;9.962;2024-02-26T01:10:34;3.30;99.90
6307;DHT22;3186;54.062;9.962;2024-02-26T01:13:00;3.30;99.90
6307;DHT22;3186;54.062;9.962;2024-02-26T01:15:26;3.20;99.90
6307;DHT22;3186;54.062;9.962;2024-02-26T01:17:52;3.20;99.90
6307;DHT22;3186;54.062;9.962;2024-02-26T01:20:18;3.20;99.90
6307;DHT22;3186;54.062;9.962;2024-02-26T01:22:44;3.20;99.90
6307;DHT22;3186;54.062;9.962;2024-02-26T01:25:10;3.10;99.90
6307;DHT22;3186;54.062;9.962;2024-02-26T01:27:39;3.20;99.90
6307;DHT22;3186;54.062;9.962;2024-02-26T01:30:06;3.20;99.90
6307;DHT22;3186;54.062;9.962;2024-02-26T01:32:32;3.10;99.90
6307;DHT22;3186;54.062;9.962;2024-02-26T01:34:58;3.10;99.90
6307;DHT22;3186;54.062;9.962;2024-02-26T01:37:24;3.10;99.90
6307;DHT22;3186;54.062;9.962;2024-02-26T01:39:49;3.10;99.90
6307;DHT22;3186;54.062;9.962;2024-02-26T01:42:15;3.10;99.90
6307;DHT22;3186;54.062;9.962;2024-02-26T01:44:41;3.10;99.90
6307;DHT22;3186;54.062;9.962;2024-02-26T01:47:10;3.00;99.90
6307;DHT22;3186;54.062;9.962;2024-02-26T01:49:37;3.00;99.90
6307;DHT22;3186;54.062;9.962;2024-02-26T01:52:04;3.00;99.90
6307;DHT22;3186;54.062;9.962;2024-02-26T01:54:31;2.90;99.90
6307;DHT22;3186;54.062;9.962;2024-02-26T01:56:59;2.90;99.90
6307;DHT22;3186;54.062;9.962;2024-02-26T01:59:25;2.90;99.90
6307;DHT22;3186;54.062;9.962;2024-02-26T02:01:55;2.90;99.90
6307;DHT22;3186;54.062;9.962;2024-02-26T02:04:23;2.90;99.90
6307;DHT22;3186;54.062;9.962;2024-02-26T02:06:50;2.90;99.90
6307;DHT22;3186;54.062;9.962;2024-02-26T02:09:18;2.90;99.90
6307;DHT22;3186;54.062;9.962;2024-02-26T02:11:43;2.90;99.90
6307;DHT22;3186;54.062;9.962;2024-02-26T02:14:10;2.90;99.90
6307;DHT22;3186;54.062;9.962;2024-02-26T02:16:35;2.90;99.90
6307;DHT22;3186;54.062;9.962;2024-02-26T02:19:01;2.90;99.90
6307;DHT22;3186;54.062;9.962;2024-02-26T02:21:26;2.90;99.90
6307;DHT22;3186;54.062;9.962;2024-02-26T02:23:52;2.90;99.90
6307;DHT22;3186;54.062;9.962;2024-02-26T02:26:18;2.90;99.90
6307;DHT22;3186;54.062;9.962;2024-02-26T02:28:45;2.80;99.90
6307;DHT22;3186;54.062;9.962;2024-02-26T02:31:11;2.80;99.90
6307;DHT22;3186;54.062;9.962;2024-02-26T02:33:37;2.80;99.90
6307;DHT22;3186;54.062;9.962;2024-02-26T02:36:04;2.80;99.90
6307;DHT22;3186;54.062;9.962;2024-02-26T02:38:29;2.80;99.90
6307;DHT22;3186;54.062;9.962;2024-02-26T02:40:56;2.80;99.90
6307;DHT22;3186;54.062;9.962;2024-02-26T02:43:21;2.80;99.90
6307;DHT22;3186;54.062;9.962;2024-02-26T02:45:47;2.80;99.90
6307;DHT22;3186;54.062;9.962;2024-02-26T02:48:13;2.80;99.90
6307;DHT22;3186;54.062;9.962;2024-02-26T02:50:38;2.80;99.90
6307;DHT22;3186;54.062;9.962;2024-02-26T02:53:04;2.80;99.90
6307;DHT22;3186;54.062;9.962;2024-02-26T02:55:30;2.80;99.90
6307;DHT22;3186;54.062;9.962;2024-02-26T02:57:55;2.80;99.90
6307;DHT22;3186;54.062;9.962;2024-02-26T03:00:21;2.80;99.90
6307;DHT22;3186;54.062;9.962;2024-02-26T03:02:49;2.80;99.90
6307;DHT22;3186;54.062;9.962;2024-02-26T03:05:15;2.80;99.90
6307;DHT22;3186;54.062;9.962;2024-02-26T03:07:40;2.70;99.90
6307;DHT22;3186;54.062;9.962;2024-02-26T03:10:06;2.80;99.90
6307;DHT22;3186;54.062;9.962;2024-02-26T03:12:33;2.80;99.90
6307;DHT22;3186;54.062;9.962;2024-02-26T03:14:59;2.80;99.90
6307;DHT22;3186;54.062;9.962;2024-02-26T03:17:28;2.70;99.90
6307;DHT22;3186;54.062;9.962;2024-02-26T03:19:54;2.80;99.90
6307;DHT22;3186;54.062;9.962;2024-02-26T03:22:20;2.70;99.90
6307;DHT22;3186;54.062;9.962;2024-02-26T03:24:46;2.80;99.90
6307;DHT22;3186;54.062;9.962;2024-02-26T03:27:12;2.70;99.90
6307;DHT22;3186;54.062;9.962;2024-02-26T03:29:38;2.80;99.90
6307;DHT22;3186;54.062;9.962;2024-02-26T03:32:04;2.70;99.90
6307;DHT22;3186;54.062;9.962;2024-02-26T03:34:31;2.70;99.90
6307;DHT22;3186;54.062;9.962;2024-02-26T03:36:57;2.70;99.90
6307;DHT22;3186;54.062;9.962;2024-02-26T03:39:22;2.80;99.90
6307;DHT22;3186;54.062;9.962;2024-02-26T03:41:48;2.70;99.90
6307;DHT22;3186;54.062;9.962;2024-02-26T03:44:14;2.80;99.90
6307;DHT22;3186;54.062;9.962;2024-02-26T03:46:40;2.70;99.90
6307;DHT22;3186;54.062;9.962;2024-02-26T03:49:08;2.70;99.90
6307;DHT22;3186;54.062;9.962;2024-02-26T03:51:34;2.70;99.90
6307;DHT22;3186;54.062;9.962;2024-02-26T03:54:00;2.70;99.90
6307;DHT22;3186;54.062;9.962;2024-02-26T03:56:26;2.70;99.90
6307;DHT22;3186;54.062;9.962;2024-02-26T03:58:52;2.70;99.90
6307;DHT22;3186;54.062;9.962;2024-02-26T04:01:18;2.80;99.90
6307;DHT22;3186;54.062;9.962;2024-02-26T04:03:43;2.70;99.90
6307;DHT22;3186;54.062;9.962;2024-02-26T04:06:10;2.80;99.90
6307;DHT22;3186;54.062;9.962;2024-02-26T04:08:40;2.70;99.90
6307;DHT22;3186;54.062;9.962;2024-02-26T04:11:06;2.60;99.90
6307;DHT22;3186;54.062;9.962;2024-02-26T04:13:36;2.70;99.90
6307;DHT22;3186;54.062;9.962;2024-02-26T04:16:04;2.70;99.90
6307;DHT22;3186;54.062;9.962;2024-02-26T04:18:31;2.70;99.90
6307;DHT22;3186;54.062;9.962;2024-02-26T04:20:57;2.70;99.90
6307;DHT22;3186;54.062;9.962;2024-02-26T04:23:23;2.70;99.90
6307;DHT22;3186;54.062;9.962;2024-02-26T04:25:48;2.70;99.90
6307;DHT22;3186;54.062;9.962;2024-02-26T04:28:14;2.70;99.90
6307;DHT22;3186;54.062;9.962;2024-02-26T04:30:40;2.60;99.90
6307;DHT22;3186;54.062;9.962;2024-02-26T04:33:06;2.70;99.90
6307;DHT22;3186;54.062;9.962;2024-02-26T04:35:31;2.60;99.90
6307;DHT22;3186;54.062;9.962;2024-02-26T04:37:57;2.60;99.90
6307;DHT22;3186;54.062;9.962;2024-02-26T04:40:23;2.70;99.90
6307;DHT22;3186;54.062;9.962;2024-02-26T04:42:49;2.70;99.90
6307;DHT22;3186;54.062;9.962;2024-02-26T04:45:15;2.70;99.90
6307;DHT22;3186;54.062;9.962;2024-02-26T04:47:41;2.60;99.90
6307;DHT22;3186;54.062;9.962;2024-02-26T04:50:07;2.60;99.90
6307;DHT22;3186;54.062;9.962;2024-02-26T04:52:32;2.60;99.90
6307;DHT22;3186;54.062;9.962;2024-02-26T04:54:58;2.60;99.90
6307;DHT22;3186;54.062;9.962;2024-02-26T04:57:25;2.60;99.90
6307;DHT22;3186;54.062;9.962;2024-02-26T04:59:51;2.60;99.90
6307;DHT22;3186;54.062;9.962;2024-02-26T05:02:17;2.60;99.90
6307;DHT22;3186;54.062;9.962;2024-02-26T05:04:43;2.60;99.90
6307;DHT22;3186;54.062;9.962;2024-02-26T05:07:09;2.60;99.90
6307;DHT22;3186;54.062;9.962;2024-02-26T05:09:34;2.60;99.90
6307;DHT22;3186;54.062;9.962;2024-02-26T05:12:00;2.60;99.90
6307;DHT22;3186;54.062;9.962;2024-02-26T05:14:26;2.60;99.90
6307;DHT22;3186;54.062;9.962;2024-02-26T05:16:51;2.50;99.90
6307;DHT22;3186;54.062;9.962;2024-02-26T05:19:17;2.50;99.90
6307;DHT22;3186;54.062;9.962;2024-02-26T05:21:43;2.50;99.90
6307;DHT22;3186;54.062;9.962;2024-02-26T05:24:09;2.50;99.90
6307;DHT22;3186;54.062;9.962;2024-02-26T05:26:35;2.50;99.90
6307;DHT22;3186;54.062;9.962;2024-02-26T05:29:01;2.60;99.90
6307;DHT22;3186;54.062;9.962;2024-02-26T05:31:27;2.50;99.90
6307;DHT22;3186;54.062;9.962;2024-02-26T05:33:54;2.50;99.90
6307;DHT22;3186;54.062;9.962;2024-02-26T05:36:23;2.50;99.90
6307;DHT22;3186;54.062;9.962;2024-02-26T05:38:50;2.50;99.90
6307;DHT22;3186;54.062;9.962;2024-02-26T05:41:16;2.50;99.90
6307;DHT22;3186;54.062;9.962;2024-02-26T05:43:42;2.50;99.90
6307;DHT22;3186;54.062;9.962;2024-02-26T05:46:08;2.40;99.90
6307;DHT22;3186;54.062;9.962;2024-02-26T05:48:34;2.40;99.90
6307;DHT22;3186;54.062;9.962;2024-02-26T05:50:59;2.40;99.90
6307;DHT22;3186;54.062;9.962;2024-02-26T05:53:25;2.40;99.90
6307;DHT22;3186;54.062;9.962;2024-02-26T05:55:50;2.40;99.90
6307;DHT22;3186;54.062;9.962;2024-02-26T05:58:16;2.30;99.90
6307;DHT22;3186;54.062;9.962;2024-02-26T06:00:42;2.30;99.90
6307;DHT22;3186;54.062;9.962;2024-02-26T06:03:07;2.40;99.90
6307;DHT22;3186;54.062;9.962;2024-02-26T06:05:33;2.40;99.90
6307;DHT22;3186;54.062;9.962;2024-02-26T06:07:59;2.30;99.90
6307;DHT22;3186;54.062;9.962;2024-02-26T06:10:24;2.30;99.90
6307;DHT22;3186;54.062;9.962;2024-02-26T06:12:50;2.20;99.90
6307;DHT22;3186;54.062;9.962;2024-02-26T06:15:16;2.30;99.90
6307;DHT22;3186;54.062;9.962;2024-02-26T06:17:41;2.30;99.90
6307;DHT22;3186;54.062;9.962;2024-02-26T06:20:07;2.20;99.90
6307;DHT22;3186;54.062;9.962;2024-02-26T06:22:37;2.20;99.90
6307;DHT22;3186;54.062;9.962;2024-02-26T06:25:03;2.20;99.90
6307;DHT22;3186;54.062;9.962;2024-02-26T06:27:28;2.20;99.90
6307;DHT22;3186;54.062;9.962;2024-02-26T06:29:54;2.30;99.90
6307;DHT22;3186;54.062;9.962;2024-02-26T06:32:19;2.20;99.90
6307;DHT22;3186;54.062;9.962;2024-02-26T06:34:45;2.10;99.90
6307;DHT22;3186;54.062;9.962;2024-02-26T06:37:10;2.10;99.90
6307;DHT22;3186;54.062;9.962;2024-02-26T06:39:36;2.10;99.90
6307;DHT22;3186;54.062;9.962;2024-02-26T06:42:03;2.10;99.90
6307;DHT22;3186;54.062;9.962;2024-02-26T06:44:29;2.10;99.90
6307;DHT22;3186;54.062;9.962;2024-02-26T06:47:00;2.10;99.90
6307;DHT22;3186;54.062;9.962;2024-02-26T06:49:26;2.10;99.90
6307;DHT22;3186;54.062;9.962;2024-02-26T06:51:52;2.00;99.90
6307;DHT22;3186;54.062;9.962;2024-02-26T06:54:18;2.10;99.90
6307;DHT22;3186;54.062;9.962;2024-02-26T06:56:44;2.10;99.90
6307;DHT22;3186;54.062;9.962;2024-02-26T06:59:10;2.00;99.90
6307;DHT22;3186;54.062;9.962;2024-02-26T07:01:35;2.00;99.90
6307;DHT22;3186;54.062;9.962;2024-02-26T07:04:01;2.10;99.90
6307;DHT22;3186;54.062;9.962;2024-02-26T07:06:27;2.00;99.90
6307;DHT22;3186;54.062;9.962;2024-02-26T07:08:53;2.00;99.90
6307;DHT22;3186;54.062;9.962;2024-02-26T07:11:19;2.00;99.90
6307;DHT22;3186;54.062;9.962;2024-02-26T07:13:46;2.00;99.90
6307;DHT22;3186;54.062;9.962;2024-02-26T07:16:11;2.00;99.90
6307;DHT22;3186;54.062;9.962;2024-02-26T07:18:39;2.00;99.90
6307;DHT22;3186;54.062;9.962;2024-02-26T07:21:05;2.00;99.90
6307;DHT22;3186;54.062;9.962;2024-02-26T07:23:31;2.00;99.90
6307;DHT22;3186;54.062;9.962;2024-02-26T07:25:57;1.90;99.90
6307;DHT22;3186;54.062;9.962;2024-02-26T07:28:23;2.00;99.90
6307;DHT22;3186;54.062;9.962;2024-02-26T07:30:49;2.00;99.90
6307;DHT22;3186;54.062;9.962;2024-02-26T07:33:14;2.00;99.90
6307;DHT22;3186;54.062;9.962;2024-02-26T07:35:40;2.00;99.90
6307;DHT22;3186;54.062;9.962;2024-02-26T07:38:07;2.00;99.90
6307;DHT22;3186;54.062;9.962;2024-02-26T07:40:32;2.00;99.90
6307;DHT22;3186;54.062;9.962;2024-02-26T07:42:58;2.00;99.90
6307;DHT22;3186;54.062;9.962;2024-02-26T07:45:24;2.10;99.90
6307;DHT22;3186;54.062;9.962;2024-02-26T07:47:49;2.10;99.90
6307;DHT22;3186;54.062;9.962;2024-02-26T07:50:17;2.10;99.90
6307;DHT22;3186;54.062;9.962;2024-02-26T07:52:43;2.10;99.90
6307;DHT22;3186;54.062;9.962;2024-02-26T07:55:09;2.10;99.90
6307;DHT22;3186;54.062;9.962;2024-02-26T07:57:35;2.10;99.90
6307;DHT22;3186;54.062;9.962;2024-02-26T08:00:04;2.10;99.90
6307;DHT22;3186;54.062;9.962;2024-02-26T08:02:32;2.10;99.90
6307;DHT22;3186;54.062;9.962;2024-02-26T08:04:59;2.20;99.90
6307;DHT22;3186;54.062;9.962;2024-02-26T08:07:25;2.20;99.90
6307;DHT22;3186;54.062;9.962;2024-02-26T08:09:50;2.20;99.90
6307;DHT22;3186;54.062;9.962;2024-02-26T08:12:16;2.20;99.90
6307;DHT22;3186;54.062;9.962;2024-02-26T08:14:42;2.20;99.90
6307;DHT22;3186;54.062;9.962;2024-02-26T08:17:09;2.20;99.90
6307;DHT22;3186;54.062;9.962;2024-02-26T08:19:35;2.20;99.90
6307;DHT22;3186;54.062;9.962;2024-02-26T08:22:01;2.20;99.90
6307;DHT22;3186;54.062;9.962;2024-02-26T08:24:27;2.20;99.90
6307;DHT22;3186;54.062;9.962;2024-02-26T08:26:53;2.20;99.90
6307;DHT22;3186;54.062;9.962;2024-02-26T08:29:19;2.20;99.90
6307;DHT22;3186;54.062;9.962;2024-02-26T08:31:45;2.30;99.90
6307;DHT22;3186;54.062;9.962;2024-02-26T08:34:10;2.30;99.90
6307;DHT22;3186;54.062;9.962;2024-02-26T08:36:36;2.30;99.90
6307;DHT22;3186;54.062;9.962;2024-02-26T08:39:02;2.30;99.90
6307;DHT22;3186;54.062;9.962;2024-02-26T08:41:28;2.30;99.90
6307;DHT22;3186;54.062;9.962;2024-02-26T08:43:53;2.30;99.90
6307;DHT22;3186;54.062;9.962;2024-02-26T08:46:20;2.40;99.90
6307;DHT22;3186;54.062;9.962;2024-02-26T08:48:46;2.40;99.90
6307;DHT22;3186;54.062;9.962;2024-02-26T08:51:11;2.40;99.90
6307;DHT22;3186;54.062;9.962;2024-02-26T08:53:38;2.40;99.90
6307;DHT22;3186;54.062;9.962;2024-02-26T08:56:04;2.40;99.90
6307;DHT22;3186;54.062;9.962;2024-02-26T08:58:30;2.40;99.90
6307;DHT22;3186;54.062;9.962;2024-02-26T09:00:56;2.50;99.90
6307;DHT22;3186;54.062;9.962;2024-02-26T09:03:22;2.50;99.90
6307;DHT22;3186;54.062;9.962;2024-02-26T09:05:48;2.50;99.90
6307;DHT22;3186;54.062;9.962;2024-02-26T09:08:14;2.50;99.90
6307;DHT22;3186;54.062;9.962;2024-02-26T09:10:39;2.60;99.90
6307;DHT22;3186;54.062;9.962;2024-02-26T09:13:05;2.60;99.90
6307;DHT22;3186;54.062;9.962;2024-02-26T09:15:31;2.60;99.90
6307;DHT22;3186;54.062;9.962;2024-02-26T09:17:56;2.60;99.90
6307;DHT22;3186;54.062;9.962;2024-02-26T09:20:22;2.60;99.90
6307;DHT22;3186;54.062;9.962;2024-02-26T09:22:49;2.60;99.90
6307;DHT22;3186;54.062;9.962;2024-02-26T09:25:16;2.60;99.90
6307;DHT22;3186;54.062;9.962;2024-02-26T09:27:46;2.70;99.90
6307;DHT22;3186;54.062;9.962;2024-02-26T09:30:12;2.70;99.90
6307;DHT22;3186;54.062;9.962;2024-02-26T09:32:39;2.70;99.90
6307;DHT22;3186;54.062;9.962;2024-02-26T09:35:06;2.70;99.90
6307;DHT22;3186;54.062;9.962;2024-02-26T09:37:31;2.80;99.90
6307;DHT22;3186;54.062;9.962;2024-02-26T09:39:58;2.80;99.90
6307;DHT22;3186;54.062;9.962;2024-02-26T09:42:25;2.80;99.90
6307;DHT22;3186;54.062;9.962;2024-02-26T09:44:54;2.80;99.90
6307;DHT22;3186;54.062;9.962;2024-02-26T09:47:23;2.80;99.90
6307;DHT22;3186;54.062;9.962;2024-02-26T09:49:53;2.80;99.90
6307;DHT22;3186;54.062;9.962;2024-02-26T09:52:21;2.90;99.90
6307;DHT22;3186;54.062;9.962;2024-02-26T09:54:48;2.90;99.90
6307;DHT22;3186;54.062;9.962;2024-02-26T09:57:15;2.90;99.90
6307;DHT22;3186;54.062;9.962;2024-02-26T09:59:43;3.00;99.90
6307;DHT22;3186;54.062;9.962;2024-02-26T10:02:13;2.90;99.90
6307;DHT22;3186;54.062;9.962;2024-02-26T10:04:40;3.00;99.90
6307;DHT22;3186;54.062;9.962;2024-02-26T10:07:10;3.00;99.90
6307;DHT22;3186;54.062;9.962;2024-02-26T10:09:36;3.00;99.90
6307;DHT22;3186;54.062;9.962;2024-02-26T10:12:02;3.10;99.90
6307;DHT22;3186;54.062;9.962;2024-02-26T10:14:28;5.00;99.90
6307;DHT22;3186;54.062;9.962;2024-02-26T10:16:54;3.10;99.90
6307;DHT22;3186;54.062;9.962;2024-02-26T10:19:27;3.20;99.90
6307;DHT22;3186;54.062;9.962;2024-02-26T10:22:00;3.20;99.90
6307;DHT22;3186;54.062;9.962;2024-02-26T10:24:27;3.20;99.90
6307;DHT22;3186;54.062;9.962;2024-02-26T10:26:54;3.20;99.90
6307;DHT22;3186;54.062;9.962;2024-02-26T10:29:22;3.30;99.90
6307;DHT22;3186;54.062;9.962;2024-02-26T10:31:48;3.30;99.90
6307;DHT22;3186;54.062;9.962;2024-02-26T10:34:15;3.50;99.90
6307;DHT22;3186;54.062;9.962;2024-02-26T10:36:41;3.40;99.90
6307;DHT22;3186;54.062;9.962;2024-02-26T10:39:07;3.40;99.90
6307;DHT22;3186;54.062;9.962;2024-02-26T10:41:34;3.40;99.90
6307;DHT22;3186;54.062;9.962;2024-02-26T10:44:00;3.40;99.90
6307;DHT22;3186;54.062;9.962;2024-02-26T10:46:26;3.40;99.90
6307;DHT22;3186;54.062;9.962;2024-02-26T10:48:52;3.40;99.90
6307;DHT22;3186;54.062;9.962;2024-02-26T10:51:29;3.50;99.90
6307;DHT22;3186;54.062;9.962;2024-02-26T10:53:56;3.50;99.90
6307;DHT22;3186;54.062;9.962;2024-02-26T10:56:29;3.50;99.90
6307;DHT22;3186;54.062;9.962;2024-02-26T10:58:59;3.60;99.90
6307;DHT22;3186;54.062;9.962;2024-02-26T11:01:25;3.60;99.90
6307;DHT22;3186;54.062;9.962;2024-02-26T11:03:52;3.60;99.90
6307;DHT22;3186;54.062;9.962;2024-02-26T11:06:26;3.70;99.90
6307;DHT22;3186;54.062;9.962;2024-02-26T11:08:52;3.70;99.90
6307;DHT22;3186;54.062;9.962;2024-02-26T11:11:19;3.70;99.90
6307;DHT22;3186;54.062;9.962;2024-02-26T11:13:47;3.80;99.90
6307;DHT22;3186;54.062;9.962;2024-02-26T11:16:21;3.90;99.90
6307;DHT22;3186;54.062;9.962;2024-02-26T11:18:48;3.90;99.90
6307;DHT22;3186;54.062;9.962;2024-02-26T11:21:17;3.90;99.90
6307;DHT22;3186;54.062;9.962;2024-02-26T11:23:53;3.90;99.90
6307;DHT22;3186;54.062;9.962;2024-02-26T11:26:20;4.00;99.90
6307;DHT22;3186;54.062;9.962;2024-02-26T11:28:48;4.00;99.90
6307;DHT22;3186;54.062;9.962;2024-02-26T11:31:15;4.00;99.90
6307;DHT22;3186;54.062;9.962;2024-02-26T11:33:40;4.10;99.90
6307;DHT22;3186;54.062;9.962;2024-02-26T11:36:11;4.20;99.90
6307;DHT22;3186;54.062;9.962;2024-02-26T11:38:37;4.20;99.90
6307;DHT22;3186;54.062;9.962;2024-02-26T11:41:04;4.30;99.90
6307;DHT22;3186;54.062;9.962;2024-02-26T11:43:52;4.30;99.90
6307;DHT22;3186;54.062;9.962;2024-02-26T11:46:29;4.40;99.90
6307;DHT22;3186;54.062;9.962;2024-02-26T11:49:03;4.50;99.90
6307;DHT22;3186;54.062;9.962;2024-02-26T11:51:33;4.50;99.90
6307;DHT22;3186;54.062;9.962;2024-02-26T11:54:00;4.50;99.90
6307;DHT22;3186;54.062;9.962;2024-02-26T11:56:26;4.60;99.90
6307;DHT22;3186;54.062;9.962;2024-02-26T11:59:00;4.60;99.90
6307;DHT22;3186;54.062;9.962;2024-02-26T12:04:05;4.70;99.90
6307;DHT22;3186;54.062;9.962;2024-02-26T12:06:38;4.70;99.90
6307;DHT22;3186;54.062;9.962;2024-02-26T12:09:05;4.70;99.90
6307;DHT22;3186;54.062;9.962;2024-02-26T12:11:31;4.80;99.90
6307;DHT22;3186;54.062;9.962;2024-02-26T12:13:56;4.80;99.90
6307;DHT22;3186;54.062;9.962;2024-02-26T12:16:38;4.80;99.90
6307;DHT22;3186;54.062;9.962;2024-02-26T12:19:08;4.80;99.90
6307;DHT22;3186;54.062;9.962;2024-02-26T12:21:35;4.70;99.90
6307;DHT22;3186;54.062;9.962;2024-02-26T12:24:28;4.80;99.90
6307;DHT22;3186;54.062;9.962;2024-02-26T12:26:53;4.80;99.90
6307;DHT22;3186;54.062;9.962;2024-02-26T12:29:19;4.80;99.90
6307;DHT22;3186;54.062;9.962;2024-02-26T12:31:45;4.90;99.90
6307;DHT22;3186;54.062;9.962;2024-02-26T12:34:11;4.90;99.90
6307;DHT22;3186;54.062;9.962;2024-02-26T12:36:37;4.90;99.90
6307;DHT22;3186;54.062;9.962;2024-02-26T12:39:05;5.00;99.90
6307;DHT22;3186;54.062;9.962;2024-02-26T12:41:34;5.00;99.90
6307;DHT22;3186;54.062;9.962;2024-02-26T12:44:00;5.10;99.90
6307;DHT22;3186;54.062;9.962;2024-02-26T12:46:26;5.10;99.90
6307;DHT22;3186;54.062;9.962;2024-02-26T12:48:54;5.10;99.90
6307;DHT22;3186;54.062;9.962;2024-02-26T12:51:22;5.10;99.90
6307;DHT22;3186;54.062;9.962;2024-02-26T12:53:48;5.20;99.90
6307;DHT22;3186;54.062;9.962;2024-02-26T12:56:16;5.10;99.90
6307;DHT22;3186;54.062;9.962;2024-02-26T12:58:42;5.30;99.90
6307;DHT22;3186;54.062;9.962;2024-02-26T13:01:14;5.10;99.90
6307;DHT22;3186;54.062;9.962;2024-02-26T13:03:40;5.20;99.90
6307;DHT22;3186;54.062;9.962;2024-02-26T13:06:06;5.20;99.90
6307;DHT22;3186;54.062;9.962;2024-02-26T13:08:33;5.20;99.90
6307;DHT22;3186;54.062;9.962;2024-02-26T13:10:59;5.20;99.90
6307;DHT22;3186;54.062;9.962;2024-02-26T13:13:25;5.20;99.90
6307;DHT22;3186;54.062;9.962;2024-02-26T13:16:01;5.40;99.90
6307;DHT22;3186;54.062;9.962;2024-02-26T13:18:27;5.40;99.90
6307;DHT22;3186;54.062;9.962;2024-02-26T13:20:53;5.40;99.90
6307;DHT22;3186;54.062;9.962;2024-02-26T13:23:20;5.30;99.90
6307;DHT22;3186;54.062;9.962;2024-02-26T13:25:45;5.40;99.90
6307;DHT22;3186;54.062;9.962;2024-02-26T13:28:16;5.50;99.90
6307;DHT22;3186;54.062;9.962;2024-02-26T13:30:49;5.50;99.90
6307;DHT22;3186;54.062;9.962;2024-02-26T13:33:15;5.40;99.90
6307;DHT22;3186;54.062;9.962;2024-02-26T13:35:41;5.40;99.90
6307;DHT22;3186;54.062;9.962;2024-02-26T13:38:07;5.50;99.90
6307;DHT22;3186;54.062;9.962;2024-02-26T13:40:32;5.60;99.90
6307;DHT22;3186;54.062;9.962;2024-02-26T13:42:58;5.60;99.90
6307;DHT22;3186;54.062;9.962;2024-02-26T13:45:23;5.70;99.90
6307;DHT22;3186;54.062;9.962;2024-02-26T13:47:49;5.70;99.90
6307;DHT22;3186;54.062;9.962;2024-02-26T13:50:15;6.00;99.90
6307;DHT22;3186;54.062;9.962;2024-02-26T13:52:42;5.90;99.90
6307;DHT22;3186;54.062;9.962;2024-02-26T13:55:08;6.00;99.90
6307;DHT22;3186;54.062;9.962;2024-02-26T13:57:34;6.10;99.90
6307;DHT22;3186;54.062;9.962;2024-02-26T13:59:59;6.10;99.90
6307;DHT22;3186;54.062;9.962;2024-02-26T14:02:25;6.10;99.90
6307;DHT22;3186;54.062;9.962;2024-02-26T14:04:51;6.20;99.90
6307;DHT22;3186;54.062;9.962;2024-02-26T14:07:16;6.30;99.90
6307;DHT22;3186;54.062;9.962;2024-02-26T14:09:45;6.40;99.90
6307;DHT22;3186;54.062;9.962;2024-02-26T14:12:11;6.10;99.90
6307;DHT22;3186;54.062;9.962;2024-02-26T14:14:36;5.90;99.90
6307;DHT22;3186;54.062;9.962;2024-02-26T14:17:05;6.10;99.90
6307;DHT22;3186;54.062;9.962;2024-02-26T14:19:31;6.20;99.90
6307;DHT22;3186;54.062;9.962;2024-02-26T14:21:56;6.30;99.90
6307;DHT22;3186;54.062;9.962;2024-02-26T14:24:22;6.30;99.90
6307;DHT22;3186;54.062;9.962;2024-02-26T14:26:48;6.30;99.90
6307;DHT22;3186;54.062;9.962;2024-02-26T14:29:13;6.20;99.90
6307;DHT22;3186;54.062;9.962;2024-02-26T14:31:40;6.30;99.90
6307;DHT22;3186;54.062;9.962;2024-02-26T14:34:05;6.30;99.90
6307;DHT22;3186;54.062;9.962;2024-02-26T14:36:31;6.30;99.90
6307;DHT22;3186;54.062;9.962;2024-02-26T14:38:56;6.20;99.90
6307;DHT22;3186;54.062;9.962;2024-02-26T14:41:22;6.20;99.90
6307;DHT22;3186;54.062;9.962;2024-02-26T14:43:48;6.20;99.90
6307;DHT22;3186;54.062;9.962;2024-02-26T14:46:13;6.20;99.90
6307;DHT22;3186;54.062;9.962;2024-02-26T14:48:39;6.10;99.90
6307;DHT22;3186;54.062;9.962;2024-02-26T14:51:05;6.10;99.90
6307;DHT22;3186;54.062;9.962;2024-02-26T14:53:32;6.40;99.90
6307;DHT22;3186;54.062;9.962;2024-02-26T14:55:58;6.50;99.90
6307;DHT22;3186;54.062;9.962;2024-02-26T14:58:23;6.50;99.90
6307;DHT22;3186;54.062;9.962;2024-02-26T15:00:49;6.50;99.90
6307;DHT22;3186;54.062;9.962;2024-02-26T15:03:15;6.60;99.90
6307;DHT22;3186;54.062;9.962;2024-02-26T15:05:40;6.40;99.90
6307;DHT22;3186;54.062;9.962;2024-02-26T15:08:06;6.60;99.90
6307;DHT22;3186;54.062;9.962;2024-02-26T15:10:34;6.60;99.90
6307;DHT22;3186;54.062;9.962;2024-02-26T15:13:00;6.60;99.90
6307;DHT22;3186;54.062;9.962;2024-02-26T15:15:25;6.70;99.90
6307;DHT22;3186;54.062;9.962;2024-02-26T15:17:52;6.60;99.90
6307;DHT22;3186;54.062;9.962;2024-02-26T15:20:18;6.60;99.90
6307;DHT22;3186;54.062;9.962;2024-02-26T15:22:43;6.60;99.90
6307;DHT22;3186;54.062;9.962;2024-02-26T15:25:09;6.60;99.90
6307;DHT22;3186;54.062;9.962;2024-02-26T15:27:35;6.50;99.90
6307;DHT22;3186;54.062;9.962;2024-02-26T15:30:01;6.30;99.90
6307;DHT22;3186;54.062;9.962;2024-02-26T15:32:27;6.50;99.90
6307;DHT22;3186;54.062;9.962;2024-02-26T15:34:54;6.50;99.90
6307;DHT22;3186;54.062;9.962;2024-02-26T15:37:19;6.50;99.90
6307;DHT22;3186;54.062;9.962;2024-02-26T15:39:45;6.50;99.90
6307;DHT22;3186;54.062;9.962;2024-02-26T15:42:11;6.30;99.90
6307;DHT22;3186;54.062;9.962;2024-02-26T15:44:38;6.40;99.90
6307;DHT22;3186;54.062;9.962;2024-02-26T15:47:04;6.40;99.90
6307;DHT22;3186;54.062;9.962;2024-02-26T15:49:31;6.50;99.90
6307;DHT22;3186;54.062;9.962;2024-02-26T15:51:56;6.40;99.90
6307;DHT22;3186;54.062;9.962;2024-02-26T15:54:22;6.40;99.90
6307;DHT22;3186;54.062;9.962;2024-02-26T15:56:48;6.40;99.90
6307;DHT22;3186;54.062;9.962;2024-02-26T15:59:13;6.40;99.90
6307;DHT22;3186;54.062;9.962;2024-02-26T16:01:39;6.40;99.90
6307;DHT22;3186;54.062;9.962;2024-02-26T16:04:05;6.30;99.90
6307;DHT22;3186;54.062;9.962;2024-02-26T16:06:41;6.30;99.90
6307;DHT22;3186;54.062;9.962;2024-02-26T16:09:08;6.30;99.90
6307;DHT22;3186;54.062;9.962;2024-02-26T16:11:34;6.30;99.90
6307;DHT22;3186;54.062;9.962;2024-02-26T16:14:25;6.40;99.90
6307;DHT22;3186;54.062;9.962;2024-02-26T16:19:50;6.30;99.90